Terminal Aerodrome Forecast
Issued by NWS Portland, OR

Home | Current Version | Previous Version | Text Only | Print | Product List | Glossary On
Versions: 1 2 3 4 5 6 7 8 9 10 11 12 13 14 15 16 17 18 19 20 21 22 23 24 25 26 27 28 29
000
FTUS46 KPQR 141140
TAFTTD
TAF
KTTD 141140Z 1412/1512 08006KT 5SM RA OVC012
     FM142200 11007KT P6SM -RA SCT015 OVC023
     FM150500 20007KT P6SM -RA SCT025 OVC035=

USA.gov is the U.S. government's official web portal to all federal, state and local government web resources and services.